Time;durP1;ratioP1;P1;durP2;ratioP2;P2;SDS_P1;SDS_P2;PMS_P1;PMS_P2;Temp;Humidity;BMP_temperature;BMP_pressure;BME280_temperature;BME280_humidity;BME280_pressure;Samples;Min_cycle;Max_cycle;Signal;HPM_P1;HPM_P2
2022/03/17 00:02:17;;;;;;;48.08;34.13;;;8.10;99.90;;;;;;5023499;28;20127;-72
2022/03/17 00:04:44;;;;;;;52.35;35.80;;;8.10;99.90;;;;;;5024696;28;20071;-71
2022/03/17 00:07:11;;;;;;;51.55;37.15;;;8.10;99.90;;;;;;5042222;28;20076;-72
2022/03/17 00:09:37;;;;;;;54.88;35.60;;;8.10;99.90;;;;;;5023466;28;20055;-72
2022/03/17 00:12:05;;;;;;;46.80;34.22;;;8.00;99.90;;;;;;5041684;28;20045;-72
2022/03/17 00:14:31;;;;;;;53.67;36.17;;;8.10;99.90;;;;;;5023425;28;20076;-72
2022/03/17 00:16:58;;;;;;;49.60;36.03;;;8.10;99.90;;;;;;5040951;28;20076;-72
2022/03/17 00:19:25;;;;;;;50.42;36.13;;;8.10;99.90;;;;;;5041691;28;20040;-72
2022/03/17 00:21:52;;;;;;;55.10;35.75;;;8.10;99.90;;;;;;5023829;28;20107;-72
2022/03/17 00:24:19;;;;;;;50.55;36.42;;;8.10;99.90;;;;;;5021230;28;20080;-72
2022/03/17 00:26:45;;;;;;;49.92;34.58;;;8.10;99.90;;;;;;5039103;28;20098;-72
2022/03/17 00:29:12;;;;;;;38.65;30.35;;;8.10;99.90;;;;;;5039109;28;20302;-72
2022/03/17 00:31:39;;;;;;;46.17;32.90;;;8.10;99.90;;;;;;5022583;28;20090;-72
2022/03/17 00:34:07;;;;;;;44.00;31.08;;;8.10;99.90;;;;;;5041201;28;20064;-71
2022/03/17 00:36:34;;;;;;;48.75;34.63;;;8.20;99.90;;;;;;5041123;28;20098;-72
2022/03/17 00:39:04;;;;;;;54.88;37.13;;;8.10;99.90;;;;;;5041035;28;20057;-72
2022/03/17 00:41:31;;;;;;;44.50;34.42;;;8.10;99.90;;;;;;5023431;28;20549;-71
2022/03/17 00:43:58;;;;;;;46.83;35.20;;;8.20;99.90;;;;;;5040915;28;20323;-72
2022/03/17 00:46:24;;;;;;;43.92;33.95;;;8.20;99.90;;;;;;5023066;28;20471;-72
2022/03/17 00:48:51;;;;;;;48.80;34.03;;;8.20;99.90;;;;;;5012216;28;20045;-73
2022/03/17 00:51:18;;;;;;;50.42;35.33;;;8.20;99.90;;;;;;5021024;28;20038;-72
2022/03/17 00:53:46;;;;;;;50.33;35.80;;;8.20;99.90;;;;;;5021448;28;20049;-72
2022/03/17 00:56:13;;;;;;;45.65;32.92;;;8.20;99.90;;;;;;5011945;28;20048;-72
2022/03/17 00:58:40;;;;;;;43.05;33.08;;;8.20;99.90;;;;;;5040927;28;20045;-72
2022/03/17 01:01:08;;;;;;;47.78;35.08;;;8.20;99.90;;;;;;5037676;28;20041;-72
2022/03/17 01:03:35;;;;;;;45.95;33.85;;;8.20;99.90;;;;;;5023302;28;20152;-72
2022/03/17 01:06:02;;;;;;;47.38;33.08;;;8.30;99.90;;;;;;5040081;28;20049;-72
2022/03/17 01:08:34;;;;;;;45.72;34.47;;;8.30;99.90;;;;;;5041196;28;20242;-72
2022/03/17 01:11:02;;;;;;;49.28;34.05;;;8.30;99.90;;;;;;5022505;28;20045;-71
2022/03/17 01:13:28;;;;;;;48.80;36.05;;;8.30;99.90;;;;;;5041224;28;20095;-72
2022/03/17 01:15:56;;;;;;;47.67;35.20;;;8.20;99.90;;;;;;5022701;28;20041;-72
2022/03/17 01:18:22;;;;;;;43.85;34.60;;;8.30;99.90;;;;;;5041196;28;20139;-72
2022/03/17 01:20:50;;;;;;;50.40;37.10;;;8.20;99.90;;;;;;5039613;28;20079;-72
2022/03/17 01:23:17;;;;;;;49.90;36.13;;;8.30;99.90;;;;;;5041169;28;20063;-72
2022/03/17 01:25:44;;;;;;;46.13;35.13;;;8.30;99.90;;;;;;5040328;28;20040;-71
2022/03/17 01:28:11;;;;;;;43.90;35.45;;;8.40;99.90;;;;;;5041138;28;20075;-72
2022/03/17 01:30:38;;;;;;;50.97;35.85;;;8.30;99.90;;;;;;5023397;28;20049;-72
2022/03/17 01:33:04;;;;;;;49.78;35.13;;;8.30;99.90;;;;;;5022347;28;20053;-72
2022/03/17 01:35:31;;;;;;;46.25;34.53;;;8.40;99.90;;;;;;5034129;23;20110;-72
2022/03/17 01:37:58;;;;;;;42.88;33.38;;;8.40;99.90;;;;;;5021763;28;20409;-73
2022/03/17 01:40:25;;;;;;;47.60;34.47;;;8.40;99.90;;;;;;5011442;28;20058;-73
2022/03/17 01:42:51;;;;;;;46.03;34.33;;;8.40;99.90;;;;;;5003554;28;20152;-73
2022/03/17 01:45:18;;;;;;;43.03;33.50;;;8.50;99.90;;;;;;4983576;28;20077;-73
2022/03/17 01:47:45;;;;;;;42.22;34.05;;;8.50;99.90;;;;;;4998067;28;20045;-74
2022/03/17 01:50:14;;;;;;;45.17;35.42;;;8.50;99.90;;;;;;4966385;28;20097;-73
2022/03/17 01:52:42;;;;;;;43.35;33.20;;;8.50;99.90;;;;;;4985145;28;20038;-73
2022/03/17 01:55:10;;;;;;;45.55;35.13;;;8.60;99.90;;;;;;4985365;28;20567;-73
2022/03/17 01:57:39;;;;;;;42.85;35.17;;;8.60;99.90;;;;;;4974049;28;20277;-73
2022/03/17 02:00:09;;;;;;;46.63;35.50;;;8.60;99.90;;;;;;5001177;28;20050;-73
2022/03/17 02:02:42;;;;;;;46.58;37.22;;;8.60;99.90;;;;;;5001021;28;20503;-73
2022/03/17 02:05:09;;;;;;;45.10;33.50;;;8.60;99.90;;;;;;5004572;28;20050;-72
2022/03/17 02:07:36;;;;;;;44.92;36.00;;;8.50;99.90;;;;;;5003283;28;20075;-73
2022/03/17 02:10:04;;;;;;;44.95;35.17;;;8.60;99.90;;;;;;4987988;28;20268;-72
2022/03/17 02:15:16;;;;;;;45.13;36.28;;;8.50;99.90;;;;;;4984594;28;20046;-73
2022/03/17 02:17:43;;;;;;;48.80;34.63;;;8.50;99.90;;;;;;4993944;28;20542;-73
2022/03/17 02:20:13;;;;;;;45.42;36.92;;;8.50;99.90;;;;;;4986455;28;20085;-73
2022/03/17 02:22:49;;;;;;;45.92;35.42;;;8.50;99.90;;;;;;5009522;28;20049;-73
2022/03/17 02:25:36;;;;;;;44.28;35.63;;;8.50;99.90;;;;;;5004236;28;20058;-74
2022/03/17 02:28:05;;;;;;;44.25;37.75;;;8.40;99.90;;;;;;5004091;28;20531;-73
2022/03/17 02:30:36;;;;;;;50.55;35.83;;;8.50;99.90;;;;;;4996676;28;20121;-73
2022/03/17 02:33:08;;;;;;;48.67;38.00;;;8.50;99.90;;;;;;4999527;28;20396;-74
2022/03/17 02:35:37;;;;;;;44.95;35.83;;;8.50;99.90;;;;;;5004388;28;20103;-73
2022/03/17 02:38:06;;;;;;;46.38;35.85;;;8.50;99.90;;;;;;4984714;28;20554;-73
2022/03/17 02:40:35;;;;;;;46.55;37.08;;;8.50;99.90;;;;;;4994335;28;20046;-72
2022/03/17 02:43:04;;;;;;;50.42;36.47;;;8.50;99.90;;;;;;5002903;28;20041;-73
2022/03/17 02:45:31;;;;;;;46.42;36.92;;;8.50;99.90;;;;;;5003220;28;20099;-73
2022/03/17 02:47:58;;;;;;;44.47;36.38;;;8.50;99.90;;;;;;4998434;28;20196;-73
2022/03/17 02:50:25;;;;;;;46.30;36.20;;;8.50;99.90;;;;;;4980613;28;20178;-73
2022/03/17 02:52:52;;;;;;;44.95;35.47;;;8.50;99.90;;;;;;5004167;28;20133;-73
2022/03/17 02:55:19;;;;;;;52.00;37.10;;;8.50;99.90;;;;;;4986630;28;20054;-73
2022/03/17 02:57:50;;;;;;;47.65;38.00;;;8.50;99.90;;;;;;5003436;28;20516;-73
2022/03/17 03:00:17;;;;;;;44.67;37.65;;;8.50;99.90;;;;;;4999338;28;20099;-73
2022/03/17 03:02:44;;;;;;;44.42;36.63;;;8.50;99.90;;;;;;4990748;28;20046;-73
2022/03/17 03:05:17;;;;;;;47.40;36.53;;;8.50;99.90;;;;;;4984685;28;20058;-72
2022/03/17 03:07:44;;;;;;;44.13;37.53;;;8.50;99.90;;;;;;4970238;28;20034;-73
2022/03/17 03:10:11;;;;;;;50.00;36.78;;;8.50;99.90;;;;;;4988897;28;20520;-73
2022/03/17 03:12:38;;;;;;;50.92;38.00;;;8.50;99.90;;;;;;4983654;28;20109;-73
2022/03/17 03:15:06;;;;;;;48.08;34.85;;;8.50;99.90;;;;;;4982967;28;20153;-73
2022/03/17 03:17:33;;;;;;;47.35;36.63;;;8.50;99.90;;;;;;4982759;28;20599;-73
2022/03/17 03:20:00;;;;;;;48.90;38.53;;;8.50;99.90;;;;;;4987932;28;20579;-74
2022/03/17 03:22:29;;;;;;;49.75;36.97;;;8.50;99.90;;;;;;5001709;28;20149;-72
2022/03/17 03:24:57;;;;;;;52.15;37.75;;;8.50;99.90;;;;;;5003126;28;20064;-73
2022/03/17 03:27:27;;;;;;;47.45;37.40;;;8.50;99.90;;;;;;5002874;28;20050;-73
2022/03/17 03:29:55;;;;;;;46.47;35.00;;;8.50;99.90;;;;;;4999487;28;20073;-72
2022/03/17 03:32:23;;;;;;;47.58;38.00;;;8.50;99.90;;;;;;4994866;28;20172;-73
2022/03/17 03:34:50;;;;;;;49.00;38.88;;;8.50;99.90;;;;;;5003122;28;20108;-73
2022/03/17 03:37:24;;;;;;;50.20;38.20;;;8.60;99.90;;;;;;5002325;28;20229;-74
2022/03/17 03:39:53;;;;;;;49.13;35.95;;;8.60;99.90;;;;;;4992312;28;20475;-72
2022/03/17 03:42:20;;;;;;;50.55;38.92;;;8.60;99.90;;;;;;4983147;28;20077;-73
2022/03/17 03:44:48;;;;;;;47.72;38.50;;;8.60;99.90;;;;;;4983726;28;20133;-74
2022/03/17 03:47:15;;;;;;;45.63;35.75;;;8.60;99.90;;;;;;4996910;28;20141;-73
2022/03/17 03:49:42;;;;;;;50.33;38.83;;;8.60;99.90;;;;;;4985482;28;20073;-72
2022/03/17 03:52:12;;;;;;;56.10;40.25;;;8.60;99.90;;;;;;4984604;28;20057;-74
2022/03/17 03:54:40;;;;;;;50.53;38.80;;;8.60;99.90;;;;;;4985482;28;20045;-73
2022/03/17 03:57:07;;;;;;;48.90;37.33;;;8.50;99.90;;;;;;4999731;28;20486;-73
2022/03/17 03:59:35;;;;;;;46.92;37.83;;;8.50;99.90;;;;;;4984729;28;20104;-71
2022/03/17 04:02:04;;;;;;;55.42;38.08;;;8.40;99.90;;;;;;4992446;28;20054;-73
2022/03/17 04:04:34;;;;;;;52.28;41.58;;;8.50;99.90;;;;;;5003022;28;20089;-73
2022/03/17 04:07:03;;;;;;;49.63;39.38;;;8.50;99.90;;;;;;5000358;28;20049;-72
2022/03/17 04:09:38;;;;;;;51.13;40.08;;;8.40;99.90;;;;;;4995636;28;20233;-73
2022/03/17 04:12:09;;;;;;;57.13;34.28;;;8.40;99.90;;;;;;4981304;28;20575;-72
2022/03/17 04:14:36;;;;;;;57.88;41.42;;;8.40;99.90;;;;;;5004770;28;20077;-73
2022/03/17 04:17:04;;;;;;;54.95;39.83;;;8.40;99.90;;;;;;5022394;28;20042;-73
2022/03/17 04:19:32;;;;;;;55.58;40.85;;;8.40;99.90;;;;;;4992715;28;20145;-73
2022/03/17 04:21:59;;;;;;;47.42;38.03;;;8.40;99.90;;;;;;4983318;28;20068;-73
2022/03/17 04:24:25;;;;;;;55.67;39.42;;;8.40;99.90;;;;;;5002913;28;20046;-73
2022/03/17 04:26:52;;;;;;;46.22;36.80;;;8.40;99.90;;;;;;5002462;28;20088;-73
2022/03/17 04:29:19;;;;;;;54.42;40.88;;;8.40;99.90;;;;;;5000461;28;20499;-73
2022/03/17 04:31:46;;;;;;;57.13;41.97;;;8.40;99.90;;;;;;4991933;28;20116;-73
2022/03/17 04:34:13;;;;;;;51.40;40.97;;;8.40;99.90;;;;;;4987382;28;20053;-73
2022/03/17 04:36:40;;;;;;;55.15;39.63;;;8.40;99.90;;;;;;5001538;28;20046;-74
2022/03/17 04:39:10;;;;;;;53.95;41.15;;;8.40;99.90;;;;;;5010483;28;20329;-72
2022/03/17 04:41:37;;;;;;;57.08;43.15;;;8.40;99.90;;;;;;5004454;28;20089;-73
2022/03/17 04:44:04;;;;;;;51.17;41.65;;;8.50;99.90;;;;;;4990085;28;20057;-73
2022/03/17 04:46:32;;;;;;;53.53;42.25;;;8.50;99.90;;;;;;4981121;28;20108;-72
2022/03/17 04:48:59;;;;;;;51.10;41.00;;;8.50;99.90;;;;;;4993575;28;20072;-72
2022/03/17 04:51:26;;;;;;;54.78;42.20;;;8.50;99.90;;;;;;4983685;28;20065;-73
2022/03/17 04:53:52;;;;;;;59.70;43.90;;;8.50;99.90;;;;;;5000748;28;20112;-73
2022/03/17 04:56:20;;;;;;;54.60;43.92;;;8.50;99.90;;;;;;5002044;28;20066;-73
2022/03/17 04:58:46;;;;;;;53.78;42.80;;;8.50;99.90;;;;;;5002040;28;20092;-73
2022/03/17 05:01:14;;;;;;;52.95;41.53;;;8.50;99.90;;;;;;4991805;28;20096;-72
2022/03/17 05:03:42;;;;;;;52.30;42.17;;;8.50;99.90;;;;;;4998839;28;20132;-73
2022/03/17 05:06:13;;;;;;;52.47;42.58;;;8.50;99.90;;;;;;5001915;28;20106;-73
2022/03/17 05:08:41;;;;;;;52.35;41.30;;;8.50;99.90;;;;;;4998739;28;20073;-73
2022/03/17 05:11:09;;;;;;;52.42;42.13;;;8.50;99.90;;;;;;4980746;28;20081;-73
2022/03/17 05:13:37;;;;;;;58.47;43.75;;;8.50;99.90;;;;;;4999755;28;20045;-73
2022/03/17 05:16:05;;;;;;;52.25;41.28;;;8.50;99.90;;;;;;4984677;28;20080;-72
2022/03/17 05:18:33;;;;;;;56.25;44.72;;;8.50;99.90;;;;;;5001657;28;20064;-72
2022/03/17 05:21:00;;;;;;;54.35;43.13;;;8.60;99.90;;;;;;4999702;28;20060;-73
2022/03/17 05:23:27;;;;;;;60.13;45.47;;;8.60;99.90;;;;;;5002419;28;20196;-72
2022/03/17 05:25:55;;;;;;;55.20;45.42;;;8.60;99.90;;;;;;5005064;28;20058;-72
2022/03/17 05:28:21;;;;;;;59.33;44.65;;;8.60;99.90;;;;;;5005968;28;20476;-73
2022/03/17 05:30:48;;;;;;;61.45;44.78;;;8.60;99.90;;;;;;4997027;28;20709;-74
2022/03/17 05:33:16;;;;;;;57.30;46.92;;;8.60;99.90;;;;;;5015008;28;20065;-74
2022/03/17 05:35:44;;;;;;;64.47;48.78;;;8.60;99.90;;;;;;4985992;28;20088;-72
2022/03/17 05:38:11;;;;;;;62.67;47.95;;;8.60;99.90;;;;;;5003873;28;20073;-73
2022/03/17 05:40:39;;;;;;;54.72;45.78;;;8.60;99.90;;;;;;5000915;28;20585;-73
2022/03/17 05:43:09;;;;;;;59.88;48.03;;;8.60;99.90;;;;;;5005050;28;20049;-72
2022/03/17 05:45:37;;;;;;;61.60;47.20;;;8.60;99.90;;;;;;5003106;28;20057;-73
2022/03/17 05:48:06;;;;;;;56.25;45.08;;;8.60;99.90;;;;;;5000985;28;20467;-72
2022/03/17 05:50:41;;;;;;;56.60;45.17;;;8.60;99.90;;;;;;4967911;28;20492;-73
2022/03/17 05:53:09;;;;;;;56.67;46.10;;;8.60;99.90;;;;;;4999966;28;20054;-72
2022/03/17 05:55:36;;;;;;;54.80;45.58;;;8.60;99.90;;;;;;5006417;28;20585;-73
2022/03/17 05:58:04;;;;;;;60.78;48.65;;;8.60;99.90;;;;;;5005297;28;20084;-72
2022/03/17 06:00:31;;;;;;;60.47;46.15;;;8.60;99.90;;;;;;4988634;28;20104;-72
2022/03/17 06:02:59;;;;;;;59.25;44.58;;;8.60;99.90;;;;;;5008064;28;20192;-72
2022/03/17 06:05:27;;;;;;;56.03;46.67;;;8.60;99.90;;;;;;5005442;28;20100;-72
2022/03/17 06:07:57;;;;;;;57.17;46.88;;;8.60;99.90;;;;;;5004477;28;20534;-73
2022/03/17 06:10:26;;;;;;;58.10;48.35;;;8.60;99.90;;;;;;5002510;28;20053;-72
2022/03/17 06:12:54;;;;;;;59.25;48.40;;;8.70;99.90;;;;;;4985683;28;20118;-72
2022/03/17 06:15:23;;;;;;;60.88;48.33;;;8.60;99.90;;;;;;5004725;28;20042;-72
2022/03/17 06:17:52;;;;;;;56.53;47.58;;;8.60;99.90;;;;;;5002859;28;20099;-72
2022/03/17 06:20:26;;;;;;;55.45;43.83;;;8.60;99.90;;;;;;5003876;28;20097;-72
2022/03/17 06:22:55;;;;;;;60.35;48.78;;;8.60;99.90;;;;;;5004345;28;20562;-72
2022/03/17 06:25:25;;;;;;;60.17;48.20;;;8.70;99.90;;;;;;5004220;28;20364;-72
2022/03/17 06:27:52;;;;;;;57.85;43.83;;;8.70;99.90;;;;;;5004325;28;20488;-72
2022/03/17 06:30:21;;;;;;;60.00;48.67;;;8.60;99.90;;;;;;4999745;28;20079;-72
2022/03/17 06:32:50;;;;;;;58.25;47.60;;;8.70;99.90;;;;;;5002694;28;20328;-72
2022/03/17 06:35:20;;;;;;;60.28;49.00;;;8.70;99.90;;;;;;5001122;28;20108;-72
2022/03/17 06:37:49;;;;;;;64.03;50.33;;;8.70;99.90;;;;;;5001277;28;20057;-72
2022/03/17 06:40:17;;;;;;;57.22;49.08;;;8.70;99.90;;;;;;5001950;28;20124;-71
2022/03/17 06:42:45;;;;;;;63.03;48.20;;;8.70;99.90;;;;;;5003059;28;20357;-72
2022/03/17 06:45:12;;;;;;;65.30;51.25;;;8.70;99.90;;;;;;5001889;28;20187;-72
2022/03/17 06:47:39;;;;;;;57.90;48.35;;;8.70;99.90;;;;;;5002369;28;20539;-72
2022/03/17 06:50:07;;;;;;;63.10;50.42;;;8.70;99.90;;;;;;4982885;28;20349;-72
2022/03/17 06:52:34;;;;;;;61.88;49.25;;;8.70;99.90;;;;;;4983714;28;20129;-72
2022/03/17 06:55:02;;;;;;;60.10;49.25;;;8.70;99.90;;;;;;4998147;28;20069;-72
2022/03/17 06:57:28;;;;;;;59.85;48.60;;;8.70;99.90;;;;;;4985782;28;20042;-73
2022/03/17 06:59:55;;;;;;;64.40;49.65;;;8.60;99.90;;;;;;5002465;28;20128;-72
2022/03/17 07:02:22;;;;;;;64.40;50.80;;;8.50;99.90;;;;;;4992001;28;20045;-72
2022/03/17 07:04:49;;;;;;;68.93;50.97;;;8.40;99.90;;;;;;5002632;28;20242;-72
2022/03/17 07:07:16;;;;;;;67.90;49.15;;;8.30;99.90;;;;;;5003784;28;20084;-71
2022/03/17 07:09:43;;;;;;;73.35;52.75;;;8.20;99.90;;;;;;4983728;28;20046;-72
2022/03/17 07:12:13;;;;;;;70.63;51.35;;;8.20;99.90;;;;;;4986531;28;20053;-71
2022/03/17 07:14:39;;;;;;;70.70;50.53;;;8.20;99.90;;;;;;5001508;28;20045;-72
2022/03/17 07:17:07;;;;;;;71.70;51.17;;;8.20;99.90;;;;;;5001845;28;20121;-72
2022/03/17 07:19:35;;;;;;;70.25;50.38;;;8.10;99.90;;;;;;5001566;28;20503;-72
2022/03/17 07:22:03;;;;;;;66.88;50.30;;;8.10;99.90;;;;;;5002118;28;20050;-73
2022/03/17 07:24:30;;;;;;;65.47;50.65;;;8.10;99.90;;;;;;5002851;28;20116;-73
2022/03/17 07:26:58;;;;;;;70.00;51.08;;;8.00;99.90;;;;;;5000822;28;20191;-72
2022/03/17 07:29:28;;;;;;;72.28;51.45;;;8.10;99.90;;;;;;5001974;28;20491;-72
2022/03/17 07:31:56;;;;;;;69.05;48.97;;;8.10;99.90;;;;;;4996057;28;20527;-72
2022/03/17 07:34:24;;;;;;;71.40;52.47;;;8.00;99.90;;;;;;4985417;28;20130;-74
2022/03/17 07:36:51;;;;;;;74.68;50.95;;;7.90;99.90;;;;;;5002590;28;20137;-73
2022/03/17 07:39:18;;;;;;;76.45;51.10;;;7.90;99.90;;;;;;5000177;28;20574;-73
2022/03/17 07:41:45;;;;;;;75.13;51.60;;;7.90;99.90;;;;;;5001259;28;20137;-73
2022/03/17 07:44:13;;;;;;;79.32;52.83;;;7.90;99.90;;;;;;5002795;28;20459;-73
2022/03/17 07:47:00;;;;;;;77.72;54.20;;;7.90;99.90;;;;;;5017241;28;20581;-73
2022/03/17 07:49:40;;;;;;;86.00;54.97;;;7.80;99.90;;;;;;5002739;28;20396;-73
2022/03/17 07:52:07;;;;;;;78.75;52.35;;;7.80;99.90;;;;;;5001234;28;20099;-73
2022/03/17 07:54:35;;;;;;;80.60;52.97;;;7.80;99.90;;;;;;5001083;28;20096;-73
2022/03/17 07:57:03;;;;;;;78.90;55.28;;;7.80;99.90;;;;;;4984298;28;20191;-73
2022/03/17 07:59:32;;;;;;;81.75;54.00;;;7.80;99.90;;;;;;5000173;28;20499;-73
2022/03/17 08:02:03;;;;;;;79.35;55.15;;;7.80;99.90;;;;;;5009959;28;20053;-73
2022/03/17 08:04:30;;;;;;;82.38;54.33;;;7.80;99.90;;;;;;5001979;28;20050;-72
2022/03/17 08:07:00;;;;;;;83.93;54.75;;;7.90;99.90;;;;;;4984813;28;20289;-72
2022/03/17 08:09:28;;;;;;;80.75;54.25;;;7.80;99.90;;;;;;5002056;28;20743;-72
2022/03/17 08:11:54;;;;;;;84.07;54.70;;;7.80;99.90;;;;;;5002186;28;20147;-72
2022/03/17 08:14:21;;;;;;;89.72;57.08;;;7.80;99.90;;;;;;5001452;28;20080;-72
2022/03/17 08:16:48;;;;;;;94.70;58.80;;;7.80;99.90;;;;;;5000102;28;20141;-73
2022/03/17 08:19:15;;;;;;;82.97;51.08;;;7.80;99.90;;;;;;5002693;28;20049;-72
2022/03/17 08:21:42;;;;;;;92.72;55.13;;;7.80;99.90;;;;;;5003213;28;20076;-72
2022/03/17 08:24:09;;;;;;;88.18;56.13;;;7.70;99.90;;;;;;5005176;28;20633;-72
2022/03/17 08:26:37;;;;;;;100.97;57.88;;;7.70;99.90;;;;;;5004276;28;20619;-71
2022/03/17 08:29:05;;;;;;;95.57;56.97;;;7.80;99.90;;;;;;5002100;28;20061;-72
2022/03/17 08:31:32;;;;;;;93.40;57.30;;;7.80;99.90;;;;;;5007938;28;20151;-72
2022/03/17 08:33:59;;;;;;;97.05;58.78;;;7.90;99.90;;;;;;5018985;28;20585;-72
2022/03/17 08:36:26;;;;;;;96.32;58.45;;;7.90;99.90;;;;;;5003882;28;20049;-72
2022/03/17 08:38:54;;;;;;;95.55;58.15;;;7.90;99.90;;;;;;5001989;28;20180;-72
2022/03/17 08:41:21;;;;;;;97.57;59.53;;;8.00;99.90;;;;;;5001765;28;20053;-72
2022/03/17 08:43:48;;;;;;;100.53;59.45;;;7.90;99.90;;;;;;5001408;28;20438;-72
2022/03/17 08:49:18;;;;;;;100.00;59.17;;;8.00;99.90;;;;;;4994076;28;20251;-72
2022/03/17 08:51:47;;;;;;;104.93;58.83;;;7.90;99.90;;;;;;4999354;28;20423;-72
2022/03/17 08:54:14;;;;;;;109.13;62.15;;;8.00;99.90;;;;;;5002267;28;20046;-72
2022/03/17 08:56:42;;;;;;;105.47;59.25;;;7.90;99.90;;;;;;4999768;28;20424;-72
2022/03/17 08:59:10;;;;;;;114.03;62.50;;;7.90;99.90;;;;;;5003683;28;20597;-72
2022/03/17 09:01:37;;;;;;;116.97;65.18;;;8.00;99.90;;;;;;5010206;28;20099;-72
2022/03/17 09:04:07;;;;;;;110.63;62.10;;;8.00;99.90;;;;;;5001535;28;20049;-72
2022/03/17 09:06:35;;;;;;;108.30;63.30;;;8.00;99.90;;;;;;5001022;28;20049;-72
2022/03/17 09:09:03;;;;;;;113.32;65.28;;;8.00;99.90;;;;;;5000959;28;20141;-72
2022/03/17 09:11:34;;;;;;;111.88;64.07;;;8.00;99.90;;;;;;5000657;28;20080;-72
2022/03/17 09:14:07;;;;;;;112.85;61.95;;;8.00;99.90;;;;;;5000755;28;20433;-71
2022/03/17 09:16:35;;;;;;;113.15;63.42;;;7.90;99.90;;;;;;4999100;28;20066;-72
2022/03/17 09:19:02;;;;;;;108.68;61.88;;;7.90;99.90;;;;;;5000636;28;20097;-71
2022/03/17 09:21:29;;;;;;;119.40;61.53;;;7.80;99.90;;;;;;4999914;28;20058;-72
2022/03/17 09:23:55;;;;;;;128.02;66.57;;;7.80;99.90;;;;;;5001066;28;20042;-72
2022/03/17 09:26:22;;;;;;;133.63;67.28;;;7.80;99.90;;;;;;5000534;28;20062;-72
2022/03/17 09:28:51;;;;;;;155.05;74.13;;;7.70;99.90;;;;;;4999556;28;20094;-72
2022/03/17 09:31:18;;;;;;;150.30;72.78;;;7.70;99.90;;;;;;5005777;28;20104;-73
2022/03/17 09:33:45;;;;;;;156.60;73.80;;;7.70;99.90;;;;;;5002333;28;20048;-72
2022/03/17 09:36:12;;;;;;;170.55;76.13;;;7.60;99.90;;;;;;5000376;28;20515;-72
2022/03/17 09:38:40;;;;;;;176.23;77.30;;;7.60;99.90;;;;;;4999169;28;20717;-72
2022/03/17 09:41:24;;;;;;;165.35;72.93;;;7.60;99.90;;;;;;4998686;28;20132;-72
2022/03/17 09:43:52;;;;;;;153.20;68.57;;;7.60;99.90;;;;;;4998482;28;20038;-72
2022/03/17 09:46:23;;;;;;;148.98;65.93;;;7.70;99.90;;;;;;4998015;28;20054;-72
2022/03/17 09:48:55;;;;;;;155.80;68.75;;;7.80;99.90;;;;;;4989556;28;20141;-72
2022/03/17 09:51:27;;;;;;;149.98;65.85;;;7.80;99.90;;;;;;4979784;28;20130;-72
2022/03/17 09:53:58;;;;;;;143.82;64.75;;;7.90;99.90;;;;;;4983329;28;20042;-72
2022/03/17 09:56:25;;;;;;;136.27;60.97;;;7.90;99.90;;;;;;5000143;28;20535;-73
2022/03/17 09:58:53;;;;;;;112.03;52.15;;;7.90;99.90;;;;;;5001368;28;20490;-72
2022/03/17 10:01:21;;;;;;;111.60;51.22;;;8.00;99.90;;;;;;5006425;28;20201;-72
2022/03/17 10:03:49;;;;;;;97.20;43.15;;;8.00;99.90;;;;;;5018098;28;20104;-72
2022/03/17 10:06:15;;;;;;;92.38;41.08;;;8.00;99.90;;;;;;5000034;28;20222;-72
2022/03/17 10:08:45;;;;;;;80.95;34.63;;;7.90;99.90;;;;;;5000069;28;20045;-72
2022/03/17 10:11:16;;;;;;;67.78;31.77;;;7.90;99.90;;;;;;4983649;28;20436;-73
2022/03/17 10:13:46;;;;;;;67.45;33.30;;;7.80;99.90;;;;;;5003774;28;20369;-72
2022/03/17 10:16:19;;;;;;;70.53;33.53;;;7.80;99.90;;;;;;4998774;28;20061;-74
2022/03/17 10:19:02;;;;;;;61.28;30.55;;;7.80;99.90;;;;;;5003564;28;20129;-72
2022/03/17 10:21:30;;;;;;;64.15;30.95;;;7.70;99.90;;;;;;5002489;28;20041;-73
2022/03/17 10:24:08;;;;;;;63.42;32.03;;;7.60;99.90;;;;;;5002909;28;20563;-72
2022/03/17 10:26:39;;;;;;;65.03;31.50;;;7.60;99.90;;;;;;4984651;28;20042;-72
2022/03/17 10:29:11;;;;;;;71.28;32.83;;;7.50;99.90;;;;;;5000160;28;20271;-71
2022/03/17 10:31:51;;;;;;;76.40;34.92;;;7.50;99.90;;;;;;4995331;28;20046;-72
2022/03/17 10:34:28;;;;;;;66.47;35.10;;;7.40;99.90;;;;;;5002167;28;20650;-72
2022/03/17 10:37:07;;;;;;;66.43;35.17;;;7.30;99.90;;;;;;5000313;28;20057;-72
2022/03/17 10:39:45;;;;;;;77.03;35.60;;;7.30;99.90;;;;;;5004475;28;20119;-72
2022/03/17 10:42:17;;;;;;;63.83;34.00;;;7.40;99.90;;;;;;5005197;28;20054;-74
2022/03/17 10:44:58;;;;;;;53.80;27.55;;;7.30;99.90;;;;;;4987413;28;20099;-74
2022/03/17 10:47:34;;;;;;;63.13;32.35;;;7.20;99.90;;;;;;5002085;28;20469;-75
2022/03/17 10:50:13;;;;;;;79.78;37.22;;;7.10;99.90;;;;;;4986660;28;20261;-72
2022/03/17 10:52:44;;;;;;;67.45;34.55;;;7.20;99.90;;;;;;5002769;28;20141;-72
2022/03/17 10:55:12;;;;;;;70.75;36.45;;;7.20;99.90;;;;;;5007689;28;20054;-73
2022/03/17 10:57:39;;;;;;;68.70;36.63;;;7.20;99.90;;;;;;5004811;28;20097;-75
2022/03/17 11:00:17;;;;;;;64.88;34.58;;;7.30;99.90;;;;;;4984986;28;20062;-75
2022/03/17 11:02:46;;;;;;;62.38;34.22;;;7.30;99.90;;;;;;5016933;28;20566;-75
2022/03/17 11:05:14;;;;;;;68.97;32.80;;;7.30;99.90;;;;;;5023177;28;20038;-73
2022/03/17 11:07:45;;;;;;;61.45;31.70;;;7.30;99.90;;;;;;5008722;28;20548;-73
2022/03/17 11:10:15;;;;;;;67.53;36.35;;;7.30;99.90;;;;;;5002263;28;20049;-73
2022/03/17 11:12:45;;;;;;;64.60;33.08;;;7.30;99.90;;;;;;5002846;28;20054;-74
2022/03/17 11:15:13;;;;;;;51.63;27.52;;;7.30;99.90;;;;;;5001640;28;20132;-72
2022/03/17 11:17:47;;;;;;;44.33;23.48;;;7.10;99.90;;;;;;5000535;28;20054;-73
2022/03/17 11:20:19;;;;;;;;;;;7.00;99.90;;;;;;5002521;28;20046;-73
2022/03/17 11:23:03;;;;;;;35.17;18.25;;;6.90;99.90;;;;;;5003338;28;20004;-73
2022/03/17 11:25:34;;;;;;;35.28;19.95;;;6.90;99.90;;;;;;5002544;28;20081;-74
2022/03/17 11:28:03;;;;;;;30.25;18.67;;;6.90;99.90;;;;;;5002245;28;20573;-72
2022/03/17 11:30:32;;;;;;;30.60;18.13;;;6.90;99.90;;;;;;5002790;28;20048;-72
2022/03/17 11:32:58;;;;;;;32.33;17.52;;;6.90;99.90;;;;;;5011879;28;20045;-73
2022/03/17 11:35:32;;;;;;;41.05;19.13;;;6.90;99.90;;;;;;4982823;28;20109;-73
2022/03/17 11:38:16;;;;;;;31.58;18.25;;;7.00;99.90;;;;;;4990008;28;20551;-73
2022/03/17 11:41:08;;;;;;;38.13;18.52;;;7.00;99.90;;;;;;4966051;28;20073;-74
2022/03/17 11:43:44;;;;;;;30.60;18.73;;;7.10;99.90;;;;;;5002309;28;20546;-73
2022/03/17 11:46:13;;;;;;;36.85;19.38;;;7.20;99.90;;;;;;4984934;28;20421;-73
2022/03/17 11:48:47;;;;;;;30.48;16.70;;;7.30;99.90;;;;;;4992385;28;20057;-73
2022/03/17 11:51:15;;;;;;;34.08;19.10;;;7.30;99.90;;;;;;4982510;28;20078;-73
2022/03/17 11:53:52;;;;;;;31.52;19.15;;;7.20;99.90;;;;;;4981662;28;20098;-76
2022/03/17 11:56:47;;;;;;;38.72;17.48;;;7.20;99.90;;;;;;4982968;28;20046;-74
2022/03/17 11:59:16;;;;;;;27.23;16.88;;;7.20;99.90;;;;;;4996355;28;20242;-73
2022/03/17 12:01:46;;;;;;;28.20;15.50;;;7.40;99.90;;;;;;5014300;28;20104;-75
2022/03/17 12:04:32;;;;;;;22.80;13.80;;;7.30;99.90;;;;;;5002444;28;20293;-73
2022/03/17 12:07:10;;;;;;;20.13;10.85;;;7.20;99.90;;;;;;5002169;28;20046;-75
2022/03/17 12:09:37;;;;;;;25.30;12.40;;;7.10;99.90;;;;;;5000502;28;20049;-74
2022/03/17 12:12:19;;;;;;;23.27;13.75;;;7.20;99.90;;;;;;5002226;28;20606;-74
2022/03/17 12:14:55;;;;;;;22.52;12.98;;;7.20;99.90;;;;;;5001940;28;20057;-74
2022/03/17 12:17:23;;;;;;;22.80;12.32;;;7.20;99.90;;;;;;5002467;28;20070;-74
2022/03/17 12:20:14;;;;;;;25.08;12.50;;;7.20;99.90;;;;;;4999403;28;20160;-74
2022/03/17 12:22:44;;;;;;;20.30;12.55;;;7.10;99.90;;;;;;4999323;28;20125;-75
2022/03/17 12:25:17;;;;;;;21.13;12.85;;;7.10;99.90;;;;;;5000928;28;20089;-74
2022/03/17 12:27:53;;;;;;;22.05;13.93;;;7.20;99.90;;;;;;5002207;28;20175;-74
2022/03/17 12:30:21;;;;;;;22.45;13.07;;;7.30;99.90;;;;;;5003244;28;20038;-74
2022/03/17 12:32:47;;;;;;;25.83;13.25;;;7.30;99.90;;;;;;5013343;28;20265;-75
2022/03/17 12:35:15;;;;;;;27.88;13.50;;;7.20;99.90;;;;;;5020865;28;20136;-74
2022/03/17 12:37:43;;;;;;;28.38;12.95;;;7.30;99.90;;;;;;4999262;28;20052;-76
2022/03/17 12:40:19;;;;;;;24.95;12.93;;;7.20;99.90;;;;;;4999726;28;20097;-75
2022/03/17 12:42:50;;;;;;;30.77;14.63;;;7.20;99.90;;;;;;5016840;28;20064;-76
2022/03/17 12:45:24;;;;;;;19.48;13.00;;;7.20;99.90;;;;;;5012300;28;20058;-76
2022/03/17 12:47:56;;;;;;;24.30;13.32;;;7.10;99.90;;;;;;5007903;28;20085;-75
2022/03/17 12:50:27;;;;;;;23.02;13.38;;;7.10;99.90;;;;;;5005996;28;20070;-75
2022/03/17 12:52:54;;;;;;;26.85;12.57;;;7.10;99.90;;;;;;4989309;28;20165;-76